sensor_id;sensor_type;location;lat;lon;timestamp;pressure;altitude;pressure_sealevel;temperature;humidity
49178;BME280;35016;55.674;37.468;2023-09-30T00:00:07;99454.91;;;14.38;63.93
49178;BME280;35016;55.674;37.468;2023-09-30T00:02:39;99458.72;;;14.37;63.77
49178;BME280;35016;55.674;37.468;2023-09-30T00:05:07;99454.66;;;14.34;63.73
49178;BME280;35016;55.674;37.468;2023-09-30T00:07:35;99455.22;;;14.31;64.02
49178;BME280;35016;55.674;37.468;2023-09-30T00:10:02;99454.19;;;14.27;64.20
49178;BME280;35016;55.674;37.468;2023-09-30T00:12:30;99450.91;;;14.25;64.17
49178;BME280;35016;55.674;37.468;2023-09-30T00:14:57;99461.31;;;14.23;64.41
49178;BME280;35016;55.674;37.468;2023-09-30T00:17:25;99458.34;;;14.19;64.43
49178;BME280;35016;55.674;37.468;2023-09-30T00:19:52;99453.72;;;14.15;64.42
49178;BME280;35016;55.674;37.468;2023-09-30T00:22:19;99458.09;;;14.11;64.54
49178;BME280;35016;55.674;37.468;2023-09-30T00:24:46;99447.22;;;14.06;64.40
49178;BME280;35016;55.674;37.468;2023-09-30T00:27:14;99461.44;;;14.03;64.76
49178;BME280;35016;55.674;37.468;2023-09-30T00:29:41;99454.94;;;13.99;64.64
49178;BME280;35016;55.674;37.468;2023-09-30T00:32:08;99453.59;;;13.96;65.00
49178;BME280;35016;55.674;37.468;2023-09-30T00:34:36;99451.13;;;13.94;65.08
49178;BME280;35016;55.674;37.468;2023-09-30T00:37:04;99451.44;;;13.93;65.08
49178;BME280;35016;55.674;37.468;2023-09-30T00:39:32;99451.72;;;13.86;65.30
49178;BME280;35016;55.674;37.468;2023-09-30T00:42:00;99445.16;;;13.87;65.35
49178;BME280;35016;55.674;37.468;2023-09-30T00:44:28;99441.91;;;13.85;65.60
49178;BME280;35016;55.674;37.468;2023-09-30T00:46:55;99444.38;;;13.82;65.29
49178;BME280;35016;55.674;37.468;2023-09-30T00:49:24;99437.59;;;13.79;65.67
49178;BME280;35016;55.674;37.468;2023-09-30T00:51:52;99437.34;;;13.76;65.69
49178;BME280;35016;55.674;37.468;2023-09-30T00:54:21;99437.63;;;13.74;65.87
49178;BME280;35016;55.674;37.468;2023-09-30T00:56:50;99441.44;;;13.73;65.77
49178;BME280;35016;55.674;37.468;2023-09-30T00:59:18;99432.75;;;13.71;65.81
49178;BME280;35016;55.674;37.468;2023-09-30T01:01:46;99435.75;;;13.70;65.93
49178;BME280;35016;55.674;37.468;2023-09-30T01:04:14;99437.13;;;13.67;66.02
49178;BME280;35016;55.674;37.468;2023-09-30T01:06:42;99434.41;;;13.67;66.06
49178;BME280;35016;55.674;37.468;2023-09-30T01:09:09;99439.31;;;13.65;66.19
49178;BME280;35016;55.674;37.468;2023-09-30T01:11:36;99432.81;;;13.61;66.09
49178;BME280;35016;55.674;37.468;2023-09-30T01:14:03;99428.47;;;13.55;66.32
49178;BME280;35016;55.674;37.468;2023-09-30T01:16:31;99438.81;;;13.53;66.47
49178;BME280;35016;55.674;37.468;2023-09-30T01:18:58;99435.03;;;13.49;66.49
49178;BME280;35016;55.674;37.468;2023-09-30T01:21:25;99441.56;;;13.48;66.58
49178;BME280;35016;55.674;37.468;2023-09-30T01:23:55;99439.41;;;13.45;66.75
49178;BME280;35016;55.674;37.468;2023-09-30T01:26:22;99435.06;;;13.44;66.63
49178;BME280;35016;55.674;37.468;2023-09-30T01:28:49;99440.50;;;13.44;66.57
49178;BME280;35016;55.674;37.468;2023-09-30T01:31:17;99439.97;;;13.42;66.62
49178;BME280;35016;55.674;37.468;2023-09-30T01:33:44;99433.47;;;13.38;66.83
49178;BME280;35016;55.674;37.468;2023-09-30T01:36:11;99431.31;;;13.35;66.89
49178;BME280;35016;55.674;37.468;2023-09-30T01:38:39;99432.69;;;13.32;67.00
49178;BME280;35016;55.674;37.468;2023-09-30T01:41:07;99432.13;;;13.30;67.01
49178;BME280;35016;55.674;37.468;2023-09-30T01:43:35;99425.31;;;13.27;67.45
49178;BME280;35016;55.674;37.468;2023-09-30T01:46:03;99424.78;;;13.25;67.00
49178;BME280;35016;55.674;37.468;2023-09-30T01:48:32;99426.97;;;13.23;67.26
49178;BME280;35016;55.674;37.468;2023-09-30T01:51:00;99428.88;;;13.23;67.32
49178;BME280;35016;55.674;37.468;2023-09-30T01:53:28;99434.59;;;13.21;67.36
49178;BME280;35016;55.674;37.468;2023-09-30T01:55:55;99434.88;;;13.20;67.49
49178;BME280;35016;55.674;37.468;2023-09-30T01:58:22;99430.81;;;13.17;67.47
49178;BME280;35016;55.674;37.468;2023-09-30T02:00:49;99433.78;;;13.16;67.42
49178;BME280;35016;55.674;37.468;2023-09-30T02:03:16;99435.69;;;13.15;67.47
49178;BME280;35016;55.674;37.468;2023-09-30T02:05:44;99426.97;;;13.13;67.65
49178;BME280;35016;55.674;37.468;2023-09-30T02:08:11;99429.72;;;13.13;67.61
49178;BME280;35016;55.674;37.468;2023-09-30T02:10:42;99426.16;;;13.13;67.79
49178;BME280;35016;55.674;37.468;2023-09-30T02:13:10;99418.28;;;13.11;67.72
49178;BME280;35016;55.674;37.468;2023-09-30T02:15:39;99422.91;;;13.11;67.82
49178;BME280;35016;55.674;37.468;2023-09-30T02:18:08;99428.63;;;13.09;67.60
49178;BME280;35016;55.674;37.468;2023-09-30T02:20:36;99426.19;;;13.08;67.78
49178;BME280;35016;55.674;37.468;2023-09-30T02:23:08;99421.31;;;13.05;68.04
49178;BME280;35016;55.674;37.468;2023-09-30T02:25:38;99426.47;;;13.06;67.92
49178;BME280;35016;55.674;37.468;2023-09-30T02:28:08;99421.31;;;13.05;68.27
49178;BME280;35016;55.674;37.468;2023-09-30T02:30:36;99413.97;;;13.05;68.14
49178;BME280;35016;55.674;37.468;2023-09-30T02:33:03;99412.88;;;13.06;68.14
49178;BME280;35016;55.674;37.468;2023-09-30T02:35:32;99406.59;;;13.06;68.17
49178;BME280;35016;55.674;37.468;2023-09-30T02:37:59;99414.22;;;13.03;68.51
49178;BME280;35016;55.674;37.468;2023-09-30T02:40:27;99409.06;;;13.02;67.98
49178;BME280;35016;55.674;37.468;2023-09-30T02:42:55;99410.16;;;13.01;68.14
49178;BME280;35016;55.674;37.468;2023-09-30T02:45:24;99403.34;;;12.98;68.35
49178;BME280;35016;55.674;37.468;2023-09-30T02:47:51;99402.81;;;12.96;68.42
49178;BME280;35016;55.674;37.468;2023-09-30T02:50:20;99402.53;;;12.93;68.64
49178;BME280;35016;55.674;37.468;2023-09-30T02:52:48;99394.63;;;12.96;68.47
49178;BME280;35016;55.674;37.468;2023-09-30T02:55:16;99398.97;;;12.97;68.39
49178;BME280;35016;55.674;37.468;2023-09-30T02:57:45;99401.97;;;12.96;68.57
49178;BME280;35016;55.674;37.468;2023-09-30T03:00:15;99397.63;;;12.95;68.62
49178;BME280;35016;55.674;37.468;2023-09-30T03:02:55;99398.47;;;12.90;68.71
49178;BME280;35016;55.674;37.468;2023-09-30T03:05:23;99400.38;;;12.90;68.77
49178;BME280;35016;55.674;37.468;2023-09-30T03:07:50;99398.47;;;12.90;68.69
49178;BME280;35016;55.674;37.468;2023-09-30T03:10:18;99402.28;;;12.89;68.71
49178;BME280;35016;55.674;37.468;2023-09-30T03:12:51;99401.75;;;12.87;68.72
49178;BME280;35016;55.674;37.468;2023-09-30T03:15:19;99391.97;;;12.86;68.82
49178;BME280;35016;55.674;37.468;2023-09-30T03:17:46;99396.88;;;12.84;68.78
49178;BME280;35016;55.674;37.468;2023-09-30T03:20:18;99388.44;;;12.81;69.04
49178;BME280;35016;55.674;37.468;2023-09-30T03:22:47;99398.78;;;12.84;68.91
49178;BME280;35016;55.674;37.468;2023-09-30T03:25:17;99396.88;;;12.84;68.88
49178;BME280;35016;55.674;37.468;2023-09-30T03:27:47;99396.03;;;12.84;69.01
49178;BME280;35016;55.674;37.468;2023-09-30T03:30:16;99398.78;;;12.84;69.18
49178;BME280;35016;55.674;37.468;2023-09-30T03:32:43;99390.59;;;12.84;68.97
49178;BME280;35016;55.674;37.468;2023-09-30T03:35:12;99395.50;;;12.82;68.96
49178;BME280;35016;55.674;37.468;2023-09-30T03:37:46;99399.03;;;12.82;68.95
49178;BME280;35016;55.674;37.468;2023-09-30T03:40:15;99402.84;;;12.81;69.18
49178;BME280;35016;55.674;37.468;2023-09-30T03:42:48;99393.59;;;12.82;69.42
49178;BME280;35016;55.674;37.468;2023-09-30T03:45:18;99399.88;;;12.83;69.32
49178;BME280;35016;55.674;37.468;2023-09-30T03:47:46;99399.03;;;12.82;69.40
49178;BME280;35016;55.674;37.468;2023-09-30T03:50:15;99391.97;;;12.81;69.65
49178;BME280;35016;55.674;37.468;2023-09-30T03:52:43;99390.06;;;12.82;69.48
49178;BME280;35016;55.674;37.468;2023-09-30T03:55:15;99384.34;;;12.83;69.56
49178;BME280;35016;55.674;37.468;2023-09-30T03:57:48;99391.69;;;12.88;69.51
49178;BME280;35016;55.674;37.468;2023-09-30T04:00:16;99389.22;;;12.91;69.37
49178;BME280;35016;55.674;37.468;2023-09-30T04:02:48;99386.22;;;12.93;69.41
49178;BME280;35016;55.674;37.468;2023-09-30T04:05:19;99390.28;;;12.95;69.49
49178;BME280;35016;55.674;37.468;2023-09-30T04:07:47;99384.81;;;13.00;69.42
49178;BME280;35016;55.674;37.468;2023-09-30T04:10:14;99389.47;;;13.05;69.39
49178;BME280;35016;55.674;37.468;2023-09-30T04:12:45;99386.16;;;13.08;69.34
49178;BME280;35016;55.674;37.468;2023-09-30T04:15:12;99391.06;;;13.11;69.22
49178;BME280;35016;55.674;37.468;2023-09-30T04:17:40;99390.78;;;13.13;69.19
49178;BME280;35016;55.674;37.468;2023-09-30T04:20:08;99392.13;;;13.15;69.13
49178;BME280;35016;55.674;37.468;2023-09-30T04:22:45;99387.50;;;13.21;69.23
49178;BME280;35016;55.674;37.468;2023-09-30T04:25:16;99390.47;;;13.24;69.09
49178;BME280;35016;55.674;37.468;2023-09-30T04:27:46;99389.91;;;13.27;69.20
49178;BME280;35016;55.674;37.468;2023-09-30T04:30:17;99386.91;;;13.29;69.19
49178;BME280;35016;55.674;37.468;2023-09-30T04:32:45;99386.09;;;13.33;68.88
49178;BME280;35016;55.674;37.468;2023-09-30T04:35:13;99384.69;;;13.41;68.73
49178;BME280;35016;55.674;37.468;2023-09-30T04:37:40;99390.38;;;13.45;68.88
49178;BME280;35016;55.674;37.468;2023-09-30T04:40:08;99385.47;;;13.47;68.71
49178;BME280;35016;55.674;37.468;2023-09-30T04:42:48;99389.53;;;13.49;68.73
49178;BME280;35016;55.674;37.468;2023-09-30T04:45:19;99397.66;;;13.54;68.67
49178;BME280;35016;55.674;37.468;2023-09-30T04:47:53;99391.13;;;13.55;68.87
49178;BME280;35016;55.674;37.468;2023-09-30T04:50:20;99396.84;;;13.59;68.68
49178;BME280;35016;55.674;37.468;2023-09-30T04:52:50;99397.38;;;13.61;68.61
49178;BME280;35016;55.674;37.468;2023-09-30T04:55:19;99398.72;;;13.63;68.65
49178;BME280;35016;55.674;37.468;2023-09-30T04:57:47;99391.63;;;13.68;68.59
49178;BME280;35016;55.674;37.468;2023-09-30T05:00:17;99401.66;;;13.72;68.48
49178;BME280;35016;55.674;37.468;2023-09-30T05:02:46;99400.28;;;13.75;68.53
49178;BME280;35016;55.674;37.468;2023-09-30T05:05:14;99390.72;;;13.77;68.55
49178;BME280;35016;55.674;37.468;2023-09-30T05:07:42;99375.97;;;13.83;68.30
49178;BME280;35016;55.674;37.468;2023-09-30T05:10:10;99389.25;;;13.95;68.09
49178;BME280;35016;55.674;37.468;2023-09-30T05:12:44;99384.28;;;14.02;67.78
49178;BME280;35016;55.674;37.468;2023-09-30T05:15:16;99389.97;;;14.06;67.74
49178;BME280;35016;55.674;37.468;2023-09-30T05:17:45;99390.16;;;14.14;68.09
49178;BME280;35016;55.674;37.468;2023-09-30T05:20:14;99387.94;;;14.21;67.88
49178;BME280;35016;55.674;37.468;2023-09-30T05:22:45;99384.34;;;14.26;67.60
49178;BME280;35016;55.674;37.468;2023-09-30T05:25:14;99382.91;;;14.34;67.68
49178;BME280;35016;55.674;37.468;2023-09-30T05:27:49;99378.75;;;14.41;67.39
49178;BME280;35016;55.674;37.468;2023-09-30T05:30:17;99378.47;;;14.48;67.48
49178;BME280;35016;55.674;37.468;2023-09-30T05:32:47;99375.09;;;14.56;67.29
49178;BME280;35016;55.674;37.468;2023-09-30T05:35:14;99379.94;;;14.64;67.06
49178;BME280;35016;55.674;37.468;2023-09-30T05:37:45;99376.56;;;14.72;67.05
49178;BME280;35016;55.674;37.468;2023-09-30T05:40:13;99379.25;;;14.77;67.01
49178;BME280;35016;55.674;37.468;2023-09-30T05:42:54;99367.47;;;14.82;66.86
49178;BME280;35016;55.674;37.468;2023-09-30T05:45:24;99368.72;;;14.90;66.77
49178;BME280;35016;55.674;37.468;2023-09-30T05:47:54;99368.38;;;14.96;66.33
49178;BME280;35016;55.674;37.468;2023-09-30T05:50:24;99368.31;;;15.01;66.59
49178;BME280;35016;55.674;37.468;2023-09-30T05:52:54;99368.28;;;15.06;66.32
49178;BME280;35016;55.674;37.468;2023-09-30T05:55:23;99370.63;;;15.13;66.37
49178;BME280;35016;55.674;37.468;2023-09-30T05:57:53;99368.34;;;15.20;66.24
49178;BME280;35016;55.674;37.468;2023-09-30T06:00:22;99363.56;;;15.31;66.02
49178;BME280;35016;55.674;37.468;2023-09-30T06:03:02;99367.88;;;15.37;65.91
49178;BME280;35016;55.674;37.468;2023-09-30T06:05:39;99364.25;;;15.41;65.79
49178;BME280;35016;55.674;37.468;2023-09-30T06:08:09;99358.94;;;15.50;65.66
49178;BME280;35016;55.674;37.468;2023-09-30T06:10:41;99359.09;;;15.59;65.65
49178;BME280;35016;55.674;37.468;2023-09-30T06:13:13;99351.97;;;15.63;65.60
49178;BME280;35016;55.674;37.468;2023-09-30T06:15:43;99357.66;;;15.66;65.44
49178;BME280;35016;55.674;37.468;2023-09-30T06:18:11;99358.06;;;15.73;65.23
49178;BME280;35016;55.674;37.468;2023-09-30T06:20:41;99347.88;;;15.79;65.11
49178;BME280;35016;55.674;37.468;2023-09-30T06:23:09;99349.09;;;15.87;65.00
49178;BME280;35016;55.674;37.468;2023-09-30T06:25:37;99355.84;;;15.94;64.75
49178;BME280;35016;55.674;37.468;2023-09-30T06:28:04;99350.28;;;15.99;64.90
49178;BME280;35016;55.674;37.468;2023-09-30T06:30:31;99340.28;;;16.08;64.57
49178;BME280;35016;55.674;37.468;2023-09-30T06:33:01;99348.91;;;16.16;64.34
49178;BME280;35016;55.674;37.468;2023-09-30T06:35:32;99343.94;;;16.18;64.23
49178;BME280;35016;55.674;37.468;2023-09-30T06:38:04;99340.25;;;16.27;64.34
49178;BME280;35016;55.674;37.468;2023-09-30T06:40:34;99344.50;;;16.33;63.99
49178;BME280;35016;55.674;37.468;2023-09-30T06:43:05;99335.09;;;16.39;64.03
49178;BME280;35016;55.674;37.468;2023-09-30T06:45:32;99329.19;;;16.46;64.18
49178;BME280;35016;55.674;37.468;2023-09-30T06:48:00;99340.59;;;16.53;63.69
49178;BME280;35016;55.674;37.468;2023-09-30T06:50:27;99342.94;;;16.60;63.69
49178;BME280;35016;55.674;37.468;2023-09-30T06:52:58;99333.22;;;16.67;63.04
49178;BME280;35016;55.674;37.468;2023-09-30T06:55:35;99335.03;;;16.72;63.20
49178;BME280;35016;55.674;37.468;2023-09-30T06:58:03;99345.91;;;16.77;63.27
49178;BME280;35016;55.674;37.468;2023-09-30T07:00:34;99333.44;;;16.85;62.83
49178;BME280;35016;55.674;37.468;2023-09-30T07:03:07;99334.94;;;16.91;62.83
49178;BME280;35016;55.674;37.468;2023-09-30T07:05:36;99335.03;;;16.99;62.76
49178;BME280;35016;55.674;37.468;2023-09-30T07:08:04;99331.28;;;17.09;62.26
49178;BME280;35016;55.674;37.468;2023-09-30T07:10:31;99323.47;;;17.16;62.21
49178;BME280;35016;55.674;37.468;2023-09-30T07:12:58;99328.22;;;17.24;62.12
49178;BME280;35016;55.674;37.468;2023-09-30T07:15:25;99327.47;;;17.32;62.21
49178;BME280;35016;55.674;37.468;2023-09-30T07:17:53;99324.34;;;17.39;61.56
49178;BME280;35016;55.674;37.468;2023-09-30T07:20:20;99320.22;;;17.50;61.39
49178;BME280;35016;55.674;37.468;2023-09-30T07:22:50;99321.91;;;17.60;61.34
49178;BME280;35016;55.674;37.468;2023-09-30T07:25:33;99318.19;;;17.70;61.12
49178;BME280;35016;55.674;37.468;2023-09-30T07:28:01;99309.19;;;17.78;60.87
49178;BME280;35016;55.674;37.468;2023-09-30T07:30:32;99307.00;;;17.88;60.59
49178;BME280;35016;55.674;37.468;2023-09-30T07:32:59;99316.13;;;17.98;60.49
49178;BME280;35016;55.674;37.468;2023-09-30T07:35:26;99316.16;;;18.06;60.17
49178;BME280;35016;55.674;37.468;2023-09-30T07:37:54;99306.69;;;18.12;59.77
49178;BME280;35016;55.674;37.468;2023-09-30T07:40:24;99305.63;;;18.22;59.73
49178;BME280;35016;55.674;37.468;2023-09-30T07:42:51;99306.97;;;18.33;59.66
49178;BME280;35016;55.674;37.468;2023-09-30T07:45:18;99307.50;;;18.44;59.24
49178;BME280;35016;55.674;37.468;2023-09-30T07:47:47;99307.56;;;18.52;58.81
49178;BME280;35016;55.674;37.468;2023-09-30T07:50:14;99314.72;;;18.62;58.67
49178;BME280;35016;55.674;37.468;2023-09-30T07:52:41;99304.88;;;18.70;58.58
49178;BME280;35016;55.674;37.468;2023-09-30T07:55:09;99302.81;;;18.75;58.25
49178;BME280;35016;55.674;37.468;2023-09-30T07:57:41;99317.41;;;18.84;57.56
49178;BME280;35016;55.674;37.468;2023-09-30T08:00:10;99310.94;;;18.89;58.01
49178;BME280;35016;55.674;37.468;2023-09-30T08:02:44;99305.47;;;18.98;57.72
49178;BME280;35016;55.674;37.468;2023-09-30T08:05:12;99302.25;;;19.04;57.49
49178;BME280;35016;55.674;37.468;2023-09-30T08:07:40;99297.09;;;19.11;57.13
49178;BME280;35016;55.674;37.468;2023-09-30T08:10:08;99301.00;;;19.19;56.97
49178;BME280;35016;55.674;37.468;2023-09-30T08:12:41;99293.06;;;19.26;56.56
49178;BME280;35016;55.674;37.468;2023-09-30T08:15:09;99286.28;;;19.32;56.40
49178;BME280;35016;55.674;37.468;2023-09-30T08:17:39;99288.25;;;19.40;56.10
49178;BME280;35016;55.674;37.468;2023-09-30T08:20:08;99291.16;;;19.53;55.85
49178;BME280;35016;55.674;37.468;2023-09-30T08:22:41;99276.59;;;19.61;55.98
49178;BME280;35016;55.674;37.468;2023-09-30T08:25:09;99275.47;;;19.70;55.41
49178;BME280;35016;55.674;37.468;2023-09-30T08:27:37;99267.22;;;19.79;55.10
49178;BME280;35016;55.674;37.468;2023-09-30T08:30:06;99273.81;;;19.87;54.58
49178;BME280;35016;55.674;37.468;2023-09-30T08:32:37;99276.06;;;19.93;53.98
49178;BME280;35016;55.674;37.468;2023-09-30T08:35:05;99284.84;;;19.95;54.22
49178;BME280;35016;55.674;37.468;2023-09-30T08:37:32;99277.53;;;19.99;53.89
49178;BME280;35016;55.674;37.468;2023-09-30T08:40:00;99270.09;;;20.00;53.47
49178;BME280;35016;55.674;37.468;2023-09-30T08:42:32;99275.28;;;20.01;52.98
49178;BME280;35016;55.674;37.468;2023-09-30T08:45:05;99270.72;;;20.05;52.93
49178;BME280;35016;55.674;37.468;2023-09-30T08:47:40;99262.75;;;20.13;52.57
49178;BME280;35016;55.674;37.468;2023-09-30T08:50:10;99276.50;;;20.21;52.21
49178;BME280;35016;55.674;37.468;2023-09-30T08:52:38;99270.50;;;20.28;52.31
49178;BME280;35016;55.674;37.468;2023-09-30T08:55:08;99263.69;;;20.34;52.05
49178;BME280;35016;55.674;37.468;2023-09-30T08:57:42;99253.78;;;20.41;51.34
49178;BME280;35016;55.674;37.468;2023-09-30T09:00:12;99264.28;;;20.48;51.65
49178;BME280;35016;55.674;37.468;2023-09-30T09:02:40;99262.66;;;20.56;51.27
49178;BME280;35016;55.674;37.468;2023-09-30T09:05:08;99259.69;;;20.61;50.93
49178;BME280;35016;55.674;37.468;2023-09-30T09:07:37;99250.44;;;20.65;50.72
49178;BME280;35016;55.674;37.468;2023-09-30T09:10:10;99258.97;;;20.72;50.63
49178;BME280;35016;55.674;37.468;2023-09-30T09:12:38;99249.72;;;20.77;50.42
49178;BME280;35016;55.674;37.468;2023-09-30T09:15:19;99243.69;;;20.84;50.01
49178;BME280;35016;55.674;37.468;2023-09-30T09:17:46;99245.44;;;20.88;49.59
49178;BME280;35016;55.674;37.468;2023-09-30T09:20:18;99240.06;;;20.92;48.87
49178;BME280;35016;55.674;37.468;2023-09-30T09:22:50;99251.56;;;20.94;49.22
49178;BME280;35016;55.674;37.468;2023-09-30T09:25:22;99247.00;;;20.98;48.94
49178;BME280;35016;55.674;37.468;2023-09-30T09:27:52;99253.00;;;21.00;48.72
49178;BME280;35016;55.674;37.468;2023-09-30T09:30:22;99246.00;;;21.02;48.50
49178;BME280;35016;55.674;37.468;2023-09-30T09:33:01;99245.53;;;21.00;47.69
49178;BME280;35016;55.674;37.468;2023-09-30T09:35:30;99255.94;;;20.95;48.23
49178;BME280;35016;55.674;37.468;2023-09-30T09:38:07;99239.41;;;20.95;47.12
49178;BME280;35016;55.674;37.468;2023-09-30T09:40:36;99240.06;;;20.92;47.68
49178;BME280;35016;55.674;37.468;2023-09-30T09:43:06;99237.78;;;20.94;47.37
49178;BME280;35016;55.674;37.468;2023-09-30T09:45:35;99237.13;;;20.97;47.28
49178;BME280;35016;55.674;37.468;2023-09-30T09:48:04;99228.31;;;21.03;46.96
49178;BME280;35016;55.674;37.468;2023-09-30T09:50:32;99227.47;;;21.12;46.92
49178;BME280;35016;55.674;37.468;2023-09-30T09:53:00;99230.47;;;21.19;46.68
49178;BME280;35016;55.674;37.468;2023-09-30T09:55:27;99225.84;;;21.31;46.49
49178;BME280;35016;55.674;37.468;2023-09-30T09:57:55;99220.53;;;21.47;46.25
49178;BME280;35016;55.674;37.468;2023-09-30T10:00:25;99221.84;;;21.62;46.22
49178;BME280;35016;55.674;37.468;2023-09-30T10:02:53;99228.56;;;21.73;45.92
49178;BME280;35016;55.674;37.468;2023-09-30T10:05:26;99212.25;;;21.80;45.52
49178;BME280;35016;55.674;37.468;2023-09-30T10:08:07;99221.81;;;21.83;44.26
49178;BME280;35016;55.674;37.468;2023-09-30T10:10:36;99215.13;;;21.84;45.04
49178;BME280;35016;55.674;37.468;2023-09-30T10:13:06;99211.81;;;21.90;44.90
49178;BME280;35016;55.674;37.468;2023-09-30T10:15:37;99205.53;;;22.02;44.73
49178;BME280;35016;55.674;37.468;2023-09-30T10:18:11;99202.47;;;22.16;43.88
49178;BME280;35016;55.674;37.468;2023-09-30T10:20:44;99204.56;;;22.31;44.47
49178;BME280;35016;55.674;37.468;2023-09-30T10:23:18;99206.63;;;22.34;44.19
49178;BME280;35016;55.674;37.468;2023-09-30T10:25:47;99198.81;;;22.36;44.12
49178;BME280;35016;55.674;37.468;2023-09-30T10:28:41;99211.56;;;22.41;43.50
49178;BME280;35016;55.674;37.468;2023-09-30T10:31:19;99201.78;;;22.31;43.28
49178;BME280;35016;55.674;37.468;2023-09-30T10:34:20;99195.81;;;22.29;43.81
49178;BME280;35016;55.674;37.468;2023-09-30T10:36:48;99202.16;;;22.30;43.68
49178;BME280;35016;55.674;37.468;2023-09-30T10:39:53;99195.69;;;22.38;43.38
49178;BME280;35016;55.674;37.468;2023-09-30T10:42:46;99194.06;;;22.49;43.40
49178;BME280;35016;55.674;37.468;2023-09-30T10:45:42;99196.13;;;22.52;43.23
49178;BME280;35016;55.674;37.468;2023-09-30T10:51:00;99192.59;;;22.39;43.18
49178;BME280;35016;55.674;37.468;2023-09-30T10:53:28;99190.97;;;22.38;43.11
49178;BME280;35016;55.674;37.468;2023-09-30T10:56:01;99173.56;;;22.25;42.87
49178;BME280;35016;55.674;37.468;2023-09-30T10:58:48;99174.72;;;22.24;42.81
49178;BME280;35016;55.674;37.468;2023-09-30T11:01:18;99171.75;;;22.30;43.00
49178;BME280;35016;55.674;37.468;2023-09-30T11:03:47;99162.44;;;22.34;42.97
49178;BME280;35016;55.674;37.468;2023-09-30T11:06:19;99156.31;;;22.41;42.82
49178;BME280;35016;55.674;37.468;2023-09-30T11:08:55;99146.38;;;22.52;42.34
49178;BME280;35016;55.674;37.468;2023-09-30T11:14:25;99154.94;;;22.59;42.25
49178;BME280;35016;55.674;37.468;2023-09-30T11:17:01;99155.50;;;22.52;42.38
49178;BME280;35016;55.674;37.468;2023-09-30T11:19:46;99153.66;;;22.44;42.27
49178;BME280;35016;55.674;37.468;2023-09-30T11:22:15;99158.38;;;22.44;42.79
49178;BME280;35016;55.674;37.468;2023-09-30T11:24:42;99149.59;;;22.54;42.41
49178;BME280;35016;55.674;37.468;2023-09-30T11:27:13;99152.84;;;22.68;42.13
49178;BME280;35016;55.674;37.468;2023-09-30T11:29:49;99145.56;;;22.76;42.03
49178;BME280;35016;55.674;37.468;2023-09-30T11:32:26;99148.78;;;22.78;41.46
49178;BME280;35016;55.674;37.468;2023-09-30T11:34:55;99133.34;;;22.77;41.67
49178;BME280;35016;55.674;37.468;2023-09-30T11:37:22;99129.56;;;22.69;41.77
49178;BME280;35016;55.674;37.468;2023-09-30T11:39:49;99147.78;;;22.58;41.91
49178;BME280;35016;55.674;37.468;2023-09-30T11:42:18;99133.72;;;22.51;42.02
49178;BME280;35016;55.674;37.468;2023-09-30T11:44:48;99124.53;;;22.47;41.98
49178;BME280;35016;55.674;37.468;2023-09-30T11:47:28;99120.00;;;22.54;41.59
49178;BME280;35016;55.674;37.468;2023-09-30T11:49:57;99122.66;;;22.51;42.02
49178;BME280;35016;55.674;37.468;2023-09-30T11:52:27;99120.16;;;22.58;41.74
49178;BME280;35016;55.674;37.468;2023-09-30T11:54:55;99110.34;;;22.61;41.87
49178;BME280;35016;55.674;37.468;2023-09-30T11:57:25;99120.72;;;22.64;41.91
49178;BME280;35016;55.674;37.468;2023-09-30T11:59:53;99119.31;;;22.70;41.61
49178;BME280;35016;55.674;37.468;2023-09-30T12:02:21;99108.81;;;22.75;41.55
49178;BME280;35016;55.674;37.468;2023-09-30T12:04:48;99105.47;;;22.70;41.63
49178;BME280;35016;55.674;37.468;2023-09-30T12:07:18;99104.78;;;22.73;41.68
49178;BME280;35016;55.674;37.468;2023-09-30T12:09:47;99090.03;;;22.81;41.56
49178;BME280;35016;55.674;37.468;2023-09-30T12:12:14;99108.06;;;23.03;41.22
49178;BME280;35016;55.674;37.468;2023-09-30T12:14:42;99104.66;;;23.22;40.96
49178;BME280;35016;55.674;37.468;2023-09-30T12:17:10;99104.97;;;23.48;40.54
49178;BME280;35016;55.674;37.468;2023-09-30T12:19:40;99106.47;;;23.73;40.41
49178;BME280;35016;55.674;37.468;2023-09-30T12:22:10;99105.38;;;24.09;40.11
49178;BME280;35016;55.674;37.468;2023-09-30T12:24:38;99118.72;;;24.55;39.60
49178;BME280;35016;55.674;37.468;2023-09-30T12:27:08;99100.38;;;24.85;39.25
49178;BME280;35016;55.674;37.468;2023-09-30T12:29:35;99101.53;;;24.84;39.11
49178;BME280;35016;55.674;37.468;2023-09-30T12:32:06;99095.56;;;24.63;39.21
49178;BME280;35016;55.674;37.468;2023-09-30T12:34:34;99100.34;;;24.47;39.29
49178;BME280;35016;55.674;37.468;2023-09-30T12:37:02;99105.28;;;24.37;39.40
49178;BME280;35016;55.674;37.468;2023-09-30T12:39:30;99096.31;;;24.44;39.31
49178;BME280;35016;55.674;37.468;2023-09-30T12:42:00;99091.50;;;24.95;39.15
49178;BME280;35016;55.674;37.468;2023-09-30T12:44:28;99079.72;;;25.63;38.65
49178;BME280;35016;55.674;37.468;2023-09-30T12:46:55;99086.72;;;26.00;37.92
49178;BME280;35016;55.674;37.468;2023-09-30T12:49:23;99080.13;;;25.85;37.45
49178;BME280;35016;55.674;37.468;2023-09-30T12:51:50;99081.06;;;26.19;37.45
49178;BME280;35016;55.674;37.468;2023-09-30T12:54:17;99085.50;;;26.76;36.78
49178;BME280;35016;55.674;37.468;2023-09-30T12:56:46;99073.91;;;27.38;36.31
49178;BME280;35016;55.674;37.468;2023-09-30T12:59:15;99082.88;;;28.02;35.31
49178;BME280;35016;55.674;37.468;2023-09-30T13:01:43;99080.06;;;28.46;34.71
49178;BME280;35016;55.674;37.468;2023-09-30T13:04:11;99071.91;;;28.85;34.14
49178;BME280;35016;55.674;37.468;2023-09-30T13:06:39;99079.59;;;29.17;33.77
49178;BME280;35016;55.674;37.468;2023-09-30T13:09:08;99078.47;;;29.43;33.16